sensor_id;sensor_type;location;lat;lon;timestamp;pressure;altitude;pressure_sealevel;temperature;humidity
62510;BME280;48558;48.242;11.654;2023-05-14T00:01:58;96173.59;;;10.90;100.00
62510;BME280;48558;48.242;11.654;2023-05-14T00:06:10;96179.00;;;10.85;100.00
62510;BME280;48558;48.242;11.654;2023-05-14T00:10:23;96176.66;;;10.59;100.00
62510;BME280;48558;48.242;11.654;2023-05-14T00:14:45;96174.84;;;10.47;100.00
62510;BME280;48558;48.242;11.654;2023-05-14T00:18:58;96164.28;;;10.37;100.00
62510;BME280;48558;48.242;11.654;2023-05-14T00:23:11;96166.47;;;10.24;100.00
62510;BME280;48558;48.242;11.654;2023-05-14T00:27:23;96158.03;;;10.18;100.00
62510;BME280;48558;48.242;11.654;2023-05-14T00:31:36;96166.78;;;10.17;100.00
62510;BME280;48558;48.242;11.654;2023-05-14T00:35:49;96163.41;;;10.03;100.00
62510;BME280;48558;48.242;11.654;2023-05-14T00:40:03;96156.66;;;9.95;100.00
62510;BME280;48558;48.242;11.654;2023-05-14T00:44:17;96170.44;;;10.04;100.00
62510;BME280;48558;48.242;11.654;2023-05-14T00:48:30;96164.34;;;10.00;100.00
62510;BME280;48558;48.242;11.654;2023-05-14T00:52:42;96166.50;;;9.96;100.00
62510;BME280;48558;48.242;11.654;2023-05-14T00:56:55;96163.75;;;9.78;100.00
62510;BME280;48558;48.242;11.654;2023-05-14T01:01:08;96172.31;;;9.80;100.00
62510;BME280;48558;48.242;11.654;2023-05-14T01:05:22;96171.56;;;9.71;100.00
62510;BME280;48558;48.242;11.654;2023-05-14T01:10:01;96169.56;;;9.62;100.00
62510;BME280;48558;48.242;11.654;2023-05-14T01:14:25;96168.66;;;9.65;100.00
62510;BME280;48558;48.242;11.654;2023-05-14T01:18:45;96164.81;;;9.72;100.00
62510;BME280;48558;48.242;11.654;2023-05-14T01:23:00;96163.28;;;9.80;100.00
62510;BME280;48558;48.242;11.654;2023-05-14T01:27:24;96155.91;;;10.04;100.00
62510;BME280;48558;48.242;11.654;2023-05-14T01:31:44;96151.91;;;9.96;100.00
62510;BME280;48558;48.242;11.654;2023-05-14T01:35:58;96142.13;;;9.95;100.00
62510;BME280;48558;48.242;11.654;2023-05-14T01:40:22;96141.03;;;9.92;100.00
62510;BME280;48558;48.242;11.654;2023-05-14T01:44:35;96145.59;;;10.04;100.00
62510;BME280;48558;48.242;11.654;2023-05-14T01:48:48;96142.41;;;10.15;100.00
62510;BME280;48558;48.242;11.654;2023-05-14T01:53:01;96141.34;;;10.03;100.00
62510;BME280;48558;48.242;11.654;2023-05-14T01:57:13;96142.25;;;10.00;100.00
62510;BME280;48558;48.242;11.654;2023-05-14T02:01:26;96132.13;;;9.97;100.00
62510;BME280;48558;48.242;11.654;2023-05-14T02:05:38;96138.28;;;10.01;100.00
62510;BME280;48558;48.242;11.654;2023-05-14T02:09:51;96126.59;;;10.06;100.00
62510;BME280;48558;48.242;11.654;2023-05-14T02:14:03;96127.38;;;9.98;100.00
62510;BME280;48558;48.242;11.654;2023-05-14T02:18:16;96128.75;;;9.93;100.00
62510;BME280;48558;48.242;11.654;2023-05-14T02:22:28;96126.59;;;9.97;100.00
62510;BME280;48558;48.242;11.654;2023-05-14T02:26:41;96140.28;;;9.92;100.00
62510;BME280;48558;48.242;11.654;2023-05-14T02:31:00;96123.25;;;9.84;100.00
62510;BME280;48558;48.242;11.654;2023-05-14T02:35:12;96122.44;;;10.02;100.00
62510;BME280;48558;48.242;11.654;2023-05-14T02:39:25;96121.06;;;10.06;100.00
62510;BME280;48558;48.242;11.654;2023-05-14T02:43:42;96113.28;;;9.96;100.00
62510;BME280;48558;48.242;11.654;2023-05-14T02:47:55;96121.53;;;10.05;100.00
62510;BME280;48558;48.242;11.654;2023-05-14T02:52:07;96128.00;;;9.93;100.00
62510;BME280;48558;48.242;11.654;2023-05-14T02:56:20;96120.75;;;10.04;100.00
62510;BME280;48558;48.242;11.654;2023-05-14T03:00:33;96110.22;;;9.94;100.00
62510;BME280;48558;48.242;11.654;2023-05-14T03:04:46;96118.66;;;9.90;100.00
62510;BME280;48558;48.242;11.654;2023-05-14T03:08:59;96110.69;;;9.92;100.00
62510;BME280;48558;48.242;11.654;2023-05-14T03:13:12;96109.63;;;9.90;100.00
62510;BME280;48558;48.242;11.654;2023-05-14T03:17:28;96109.31;;;9.88;100.00
62510;BME280;48558;48.242;11.654;2023-05-14T03:21:51;96098.69;;;9.95;100.00
62510;BME280;48558;48.242;11.654;2023-05-14T03:26:05;96097.31;;;10.00;100.00
62510;BME280;48558;48.242;11.654;2023-05-14T03:30:18;96095.63;;;10.02;100.00
62510;BME280;48558;48.242;11.654;2023-05-14T03:34:30;96091.94;;;10.05;100.00
62510;BME280;48558;48.242;11.654;2023-05-14T03:38:43;96091.94;;;10.05;100.00
62510;BME280;48558;48.242;11.654;2023-05-14T03:43:05;96095.63;;;10.12;100.00
62510;BME280;48558;48.242;11.654;2023-05-14T03:47:18;96084.72;;;10.17;100.00
62510;BME280;48558;48.242;11.654;2023-05-14T03:51:40;96077.53;;;10.01;100.00
62510;BME280;48558;48.242;11.654;2023-05-14T03:55:54;96091.03;;;10.18;100.00
62510;BME280;48558;48.242;11.654;2023-05-14T04:00:07;96084.88;;;10.14;100.00
62510;BME280;48558;48.242;11.654;2023-05-14T04:04:19;96084.06;;;10.31;100.00
62510;BME280;48558;48.242;11.654;2023-05-14T04:08:32;96093.13;;;10.23;100.00
62510;BME280;48558;48.242;11.654;2023-05-14T04:12:44;96069.94;;;10.29;100.00
62510;BME280;48558;48.242;11.654;2023-05-14T04:16:57;96092.63;;;10.42;100.00
62510;BME280;48558;48.242;11.654;2023-05-14T04:21:10;96097.53;;;10.38;100.00
62510;BME280;48558;48.242;11.654;2023-05-14T04:25:25;96090.59;;;10.43;100.00
62510;BME280;48558;48.242;11.654;2023-05-14T04:29:38;96091.41;;;10.34;100.00
62510;BME280;48558;48.242;11.654;2023-05-14T04:33:50;96093.03;;;10.50;100.00
62510;BME280;48558;48.242;11.654;2023-05-14T04:38:03;96103.78;;;10.48;100.00
62510;BME280;48558;48.242;11.654;2023-05-14T04:42:15;96105.97;;;10.44;100.00
62510;BME280;48558;48.242;11.654;2023-05-14T04:46:28;96085.59;;;10.32;100.00
62510;BME280;48558;48.242;11.654;2023-05-14T04:50:50;96100.81;;;10.09;100.00
62510;BME280;48558;48.242;11.654;2023-05-14T04:55:03;96099.09;;;10.30;100.00
62510;BME280;48558;48.242;11.654;2023-05-14T04:59:16;96097.66;;;10.44;100.00
62510;BME280;48558;48.242;11.654;2023-05-14T05:03:29;96098.44;;;10.44;100.00
62510;BME280;48558;48.242;11.654;2023-05-14T05:07:42;96098.84;;;10.52;100.00
62510;BME280;48558;48.242;11.654;2023-05-14T05:11:54;96101.66;;;10.43;100.00
62510;BME280;48558;48.242;11.654;2023-05-14T05:16:07;96104.88;;;10.41;100.00
62510;BME280;48558;48.242;11.654;2023-05-14T05:20:21;96101.50;;;10.46;100.00
62510;BME280;48558;48.242;11.654;2023-05-14T05:24:34;96092.25;;;10.49;100.00
62510;BME280;48558;48.242;11.654;2023-05-14T05:28:48;96089.69;;;10.46;100.00
62510;BME280;48558;48.242;11.654;2023-05-14T05:33:00;96106.34;;;10.60;100.00
62510;BME280;48558;48.242;11.654;2023-05-14T05:37:13;96098.84;;;10.52;100.00
62510;BME280;48558;48.242;11.654;2023-05-14T05:41:26;96110.94;;;10.63;100.00
62510;BME280;48558;48.242;11.654;2023-05-14T05:45:38;96094.91;;;10.76;100.00
62510;BME280;48558;48.242;11.654;2023-05-14T05:49:50;96099.03;;;10.81;100.00
62510;BME280;48558;48.242;11.654;2023-05-14T05:54:14;96105.94;;;10.76;100.00
62510;BME280;48558;48.242;11.654;2023-05-14T05:58:27;96101.88;;;10.96;100.00
62510;BME280;48558;48.242;11.654;2023-05-14T06:02:45;96103.94;;;11.10;100.00
62510;BME280;48558;48.242;11.654;2023-05-14T06:06:57;96096.63;;;10.98;100.00
62510;BME280;48558;48.242;11.654;2023-05-14T06:11:10;96098.41;;;11.10;100.00
62510;BME280;48558;48.242;11.654;2023-05-14T06:15:23;96101.28;;;11.53;100.00
62510;BME280;48558;48.242;11.654;2023-05-14T06:19:35;96098.59;;;11.68;100.00
62510;BME280;48558;48.242;11.654;2023-05-14T06:23:48;96094.56;;;11.69;100.00
62510;BME280;48558;48.242;11.654;2023-05-14T06:28:00;96089.25;;;11.95;100.00
62510;BME280;48558;48.242;11.654;2023-05-14T06:32:13;96085.34;;;11.87;100.00
62510;BME280;48558;48.242;11.654;2023-05-14T06:36:29;96097.19;;;12.02;100.00
62510;BME280;48558;48.242;11.654;2023-05-14T06:40:41;96095.47;;;11.75;100.00
62510;BME280;48558;48.242;11.654;2023-05-14T06:44:54;96097.94;;;11.49;100.00
62510;BME280;48558;48.242;11.654;2023-05-14T06:49:07;96097.69;;;11.62;100.00
62510;BME280;48558;48.242;11.654;2023-05-14T06:53:19;96092.78;;;11.42;100.00
62510;BME280;48558;48.242;11.654;2023-05-14T06:57:32;96102.47;;;11.23;100.00
62510;BME280;48558;48.242;11.654;2023-05-14T07:01:54;96099.47;;;11.12;100.00
62510;BME280;48558;48.242;11.654;2023-05-14T07:06:07;96100.88;;;11.08;100.00
62510;BME280;48558;48.242;11.654;2023-05-14T07:10:22;96094.00;;;11.03;100.00
62510;BME280;48558;48.242;11.654;2023-05-14T07:14:37;96086.00;;;11.05;100.00
62510;BME280;48558;48.242;11.654;2023-05-14T07:18:49;96068.88;;;10.92;100.00
62510;BME280;48558;48.242;11.654;2023-05-14T07:23:02;96043.47;;;11.17;100.00
62510;BME280;48558;48.242;11.654;2023-05-14T07:27:14;96071.41;;;11.43;100.00
62510;BME280;48558;48.242;11.654;2023-05-14T07:31:28;96078.78;;;11.61;100.00
62510;BME280;48558;48.242;11.654;2023-05-14T07:35:41;96066.59;;;11.29;100.00
62510;BME280;48558;48.242;11.654;2023-05-14T07:39:53;96065.59;;;11.17;100.00
62510;BME280;48558;48.242;11.654;2023-05-14T07:44:07;96070.84;;;11.53;100.00
62510;BME280;48558;48.242;11.654;2023-05-14T07:48:20;96062.03;;;11.26;100.00
62510;BME280;48558;48.242;11.654;2023-05-14T07:52:32;96068.34;;;11.41;100.00
62510;BME280;48558;48.242;11.654;2023-05-14T07:56:45;96059.00;;;11.91;100.00
62510;BME280;48558;48.242;11.654;2023-05-14T08:01:07;96054.53;;;11.94;100.00
62510;BME280;48558;48.242;11.654;2023-05-14T08:05:20;96058.06;;;12.58;100.00
62510;BME280;48558;48.242;11.654;2023-05-14T08:09:33;96054.28;;;13.11;100.00
62510;BME280;48558;48.242;11.654;2023-05-14T08:13:45;96052.06;;;13.15;100.00
62510;BME280;48558;48.242;11.654;2023-05-14T08:17:58;96039.22;;;12.62;100.00
62510;BME280;48558;48.242;11.654;2023-05-14T08:22:14;96051.84;;;13.18;100.00
62510;BME280;48558;48.242;11.654;2023-05-14T08:26:26;96057.59;;;13.35;100.00
62510;BME280;48558;48.242;11.654;2023-05-14T08:30:39;96066.31;;;12.38;100.00
62510;BME280;48558;48.242;11.654;2023-05-14T08:34:52;96069.19;;;12.29;100.00
62510;BME280;48558;48.242;11.654;2023-05-14T08:39:04;96058.13;;;12.29;100.00
62510;BME280;48558;48.242;11.654;2023-05-14T08:43:20;96060.34;;;12.60;100.00
62510;BME280;48558;48.242;11.654;2023-05-14T08:47:37;96053.69;;;12.37;100.00
62510;BME280;48558;48.242;11.654;2023-05-14T08:51:50;96053.84;;;12.98;100.00
62510;BME280;48558;48.242;11.654;2023-05-14T08:56:04;96050.03;;;12.60;100.00
62510;BME280;48558;48.242;11.654;2023-05-14T09:00:18;96047.69;;;14.00;100.00
62510;BME280;48558;48.242;11.654;2023-05-14T09:04:31;96046.81;;;14.45;100.00
62510;BME280;48558;48.242;11.654;2023-05-14T09:08:45;96040.31;;;14.54;100.00
62510;BME280;48558;48.242;11.654;2023-05-14T09:12:57;96040.84;;;14.26;100.00
62510;BME280;48558;48.242;11.654;2023-05-14T09:17:10;96045.81;;;14.17;100.00
62510;BME280;48558;48.242;11.654;2023-05-14T09:21:23;96038.59;;;13.28;100.00
62510;BME280;48558;48.242;11.654;2023-05-14T09:25:36;96046.72;;;13.11;100.00
62510;BME280;48558;48.242;11.654;2023-05-14T09:29:48;96032.44;;;13.18;100.00
62510;BME280;48558;48.242;11.654;2023-05-14T09:34:01;96028.53;;;13.76;100.00
62510;BME280;48558;48.242;11.654;2023-05-14T09:38:14;96045.03;;;13.85;100.00
62510;BME280;48558;48.242;11.654;2023-05-14T09:42:27;96041.91;;;13.78;100.00
62510;BME280;48558;48.242;11.654;2023-05-14T09:46:50;96041.75;;;13.01;100.00
62510;BME280;48558;48.242;11.654;2023-05-14T09:51:03;96031.78;;;12.88;100.00
62510;BME280;48558;48.242;11.654;2023-05-14T09:55:17;96034.19;;;13.01;100.00
62510;BME280;48558;48.242;11.654;2023-05-14T09:59:40;96036.41;;;13.83;100.00
62510;BME280;48558;48.242;11.654;2023-05-14T10:03:53;96031.03;;;13.28;100.00
62510;BME280;48558;48.242;11.654;2023-05-14T10:08:48;96037.44;;;13.60;100.00
62510;BME280;48558;48.242;11.654;2023-05-14T10:13:19;96033.66;;;13.37;100.00
62510;BME280;48558;48.242;11.654;2023-05-14T10:17:36;96036.78;;;13.71;100.00
62510;BME280;48558;48.242;11.654;2023-05-14T10:21:55;96033.66;;;14.40;100.00
62510;BME280;48558;48.242;11.654;2023-05-14T10:26:09;96023.25;;;14.09;100.00
62510;BME280;48558;48.242;11.654;2023-05-14T10:30:21;96032.84;;;13.77;100.00
62510;BME280;48558;48.242;11.654;2023-05-14T10:34:45;96036.53;;;13.94;100.00
62510;BME280;48558;48.242;11.654;2023-05-14T10:38:57;96039.81;;;14.92;100.00
62510;BME280;48558;48.242;11.654;2023-05-14T10:43:10;96027.59;;;14.78;100.00
62510;BME280;48558;48.242;11.654;2023-05-14T10:47:24;96040.59;;;14.98;100.00
62510;BME280;48558;48.242;11.654;2023-05-14T10:51:38;96041.72;;;14.12;100.00
62510;BME280;48558;48.242;11.654;2023-05-14T10:55:53;96037.06;;;13.47;100.00
62510;BME280;48558;48.242;11.654;2023-05-14T11:00:07;96036.22;;;13.21;100.00
62510;BME280;48558;48.242;11.654;2023-05-14T11:04:22;96017.66;;;14.66;100.00
62510;BME280;48558;48.242;11.654;2023-05-14T11:08:37;96025.72;;;15.71;100.00
62510;BME280;48558;48.242;11.654;2023-05-14T11:12:50;96025.69;;;15.60;100.00
62510;BME280;48558;48.242;11.654;2023-05-14T11:17:04;96031.03;;;15.69;100.00
62510;BME280;48558;48.242;11.654;2023-05-14T11:21:16;96023.41;;;15.69;100.00
62510;BME280;48558;48.242;11.654;2023-05-14T11:25:29;96021.31;;;15.42;100.00
62510;BME280;48558;48.242;11.654;2023-05-14T11:29:46;96010.28;;;15.05;100.00
62510;BME280;48558;48.242;11.654;2023-05-14T11:33:59;96007.16;;;15.46;100.00
62510;BME280;48558;48.242;11.654;2023-05-14T11:38:19;95998.19;;;15.25;100.00
62510;BME280;48558;48.242;11.654;2023-05-14T11:42:42;95995.53;;;15.58;100.00
62510;BME280;48558;48.242;11.654;2023-05-14T11:46:55;95990.53;;;16.29;100.00
62510;BME280;48558;48.242;11.654;2023-05-14T11:51:08;95987.56;;;17.75;100.00
62510;BME280;48558;48.242;11.654;2023-05-14T11:55:21;95969.47;;;18.71;93.53
62510;BME280;48558;48.242;11.654;2023-05-14T11:59:33;95961.00;;;19.80;88.36
62510;BME280;48558;48.242;11.654;2023-05-14T12:03:46;95954.94;;;19.76;80.88
62510;BME280;48558;48.242;11.654;2023-05-14T12:07:59;95953.88;;;19.61;79.97
62510;BME280;48558;48.242;11.654;2023-05-14T12:12:11;95941.44;;;18.52;100.00
62510;BME280;48558;48.242;11.654;2023-05-14T12:16:29;95943.28;;;17.38;98.58
62510;BME280;48558;48.242;11.654;2023-05-14T12:20:48;95938.19;;;18.72;98.20
62510;BME280;48558;48.242;11.654;2023-05-14T12:25:02;95940.78;;;19.69;75.19
62510;BME280;48558;48.242;11.654;2023-05-14T12:29:20;95931.91;;;21.38;68.61
62510;BME280;48558;48.242;11.654;2023-05-14T12:33:34;95930.63;;;21.26;68.09
62510;BME280;48558;48.242;11.654;2023-05-14T12:37:46;95926.41;;;22.42;59.36
62510;BME280;48558;48.242;11.654;2023-05-14T12:41:59;95919.81;;;22.19;55.95
62510;BME280;48558;48.242;11.654;2023-05-14T12:46:12;95915.16;;;21.67;56.18
62510;BME280;48558;48.242;11.654;2023-05-14T12:50:25;95909.22;;;22.53;53.48
62510;BME280;48558;48.242;11.654;2023-05-14T12:54:37;95895.53;;;21.87;59.66
62510;BME280;48558;48.242;11.654;2023-05-14T12:59:03;95899.22;;;18.50;79.09
62510;BME280;48558;48.242;11.654;2023-05-14T13:03:16;95885.94;;;17.32;95.02
62510;BME280;48558;48.242;11.654;2023-05-14T13:07:29;95877.50;;;19.73;80.53
62510;BME280;48558;48.242;11.654;2023-05-14T13:11:41;95861.69;;;21.12;64.20
62510;BME280;48558;48.242;11.654;2023-05-14T13:15:54;95865.81;;;20.98;63.56
62510;BME280;48558;48.242;11.654;2023-05-14T13:20:14;95874.34;;;22.07;63.26
62510;BME280;48558;48.242;11.654;2023-05-14T13:24:29;95849.31;;;21.83;65.27
62510;BME280;48558;48.242;11.654;2023-05-14T13:28:41;95857.66;;;21.88;53.85
62510;BME280;48558;48.242;11.654;2023-05-14T13:32:54;95842.78;;;23.21;57.30
62510;BME280;48558;48.242;11.654;2023-05-14T13:37:06;95831.56;;;20.87;59.54
62510;BME280;48558;48.242;11.654;2023-05-14T13:41:19;95833.34;;;21.57;64.71
62510;BME280;48558;48.242;11.654;2023-05-14T13:45:32;95814.69;;;22.37;62.16
62510;BME280;48558;48.242;11.654;2023-05-14T13:49:45;95814.78;;;24.12;55.91
62510;BME280;48558;48.242;11.654;2023-05-14T13:53:58;95815.00;;;24.99;51.42
62510;BME280;48558;48.242;11.654;2023-05-14T13:58:10;95810.59;;;21.01;56.47
62510;BME280;48558;48.242;11.654;2023-05-14T14:02:23;95814.72;;;21.33;54.91
62510;BME280;48558;48.242;11.654;2023-05-14T14:06:35;95809.31;;;23.25;51.26
62510;BME280;48558;48.242;11.654;2023-05-14T14:10:58;95797.19;;;22.95;52.61
62510;BME280;48558;48.242;11.654;2023-05-14T14:15:10;95794.91;;;22.86;51.83
62510;BME280;48558;48.242;11.654;2023-05-14T14:19:23;95783.88;;;24.29;46.00
62510;BME280;48558;48.242;11.654;2023-05-14T14:23:35;95785.75;;;23.59;47.83
62510;BME280;48558;48.242;11.654;2023-05-14T14:27:48;95767.94;;;22.62;47.69
62510;BME280;48558;48.242;11.654;2023-05-14T14:32:02;95761.19;;;21.39;48.11
62510;BME280;48558;48.242;11.654;2023-05-14T14:36:15;95762.97;;;22.47;52.02
62510;BME280;48558;48.242;11.654;2023-05-14T14:40:27;95756.16;;;22.71;44.00
62510;BME280;48558;48.242;11.654;2023-05-14T14:44:43;95753.31;;;23.22;44.42
62510;BME280;48558;48.242;11.654;2023-05-14T14:48:56;95755.09;;;24.23;42.53
62510;BME280;48558;48.242;11.654;2023-05-14T14:53:08;95751.28;;;25.06;39.76
62510;BME280;48558;48.242;11.654;2023-05-14T14:57:21;95748.63;;;23.24;43.81
62510;BME280;48558;48.242;11.654;2023-05-14T15:01:33;95753.84;;;23.13;46.45
62510;BME280;48558;48.242;11.654;2023-05-14T15:05:47;95753.47;;;25.54;39.85
62510;BME280;48558;48.242;11.654;2023-05-14T15:09:59;95753.63;;;26.06;39.33
62510;BME280;48558;48.242;11.654;2023-05-14T15:14:12;95747.28;;;22.03;46.81
62510;BME280;48558;48.242;11.654;2023-05-14T15:18:25;95739.19;;;20.96;48.69
62510;BME280;48558;48.242;11.654;2023-05-14T15:22:37;95730.47;;;23.78;43.46
62510;BME280;48558;48.242;11.654;2023-05-14T15:26:50;95745.81;;;22.66;44.91
62510;BME280;48558;48.242;11.654;2023-05-14T15:31:04;95761.16;;;18.66;74.42
62510;BME280;48558;48.242;11.654;2023-05-14T15:35:17;95777.97;;;17.40;99.31
62510;BME280;48558;48.242;11.654;2023-05-14T15:39:29;95793.28;;;16.46;100.00
62510;BME280;48558;48.242;11.654;2023-05-14T15:43:42;95815.22;;;16.03;100.00
62510;BME280;48558;48.242;11.654;2023-05-14T15:47:55;95808.25;;;18.19;100.00
62510;BME280;48558;48.242;11.654;2023-05-14T15:52:16;95815.31;;;18.44;100.00
62510;BME280;48558;48.242;11.654;2023-05-14T15:56:29;95813.63;;;16.30;100.00
62510;BME280;48558;48.242;11.654;2023-05-14T16:00:42;95812.50;;;15.53;100.00
62510;BME280;48558;48.242;11.654;2023-05-14T16:04:55;95816.03;;;15.48;100.00
62510;BME280;48558;48.242;11.654;2023-05-14T16:09:07;95819.53;;;15.04;100.00
62510;BME280;48558;48.242;11.654;2023-05-14T16:13:20;95820.25;;;14.88;100.00
62510;BME280;48558;48.242;11.654;2023-05-14T16:17:42;95827.69;;;14.38;100.00
62510;BME280;48558;48.242;11.654;2023-05-14T16:21:55;95840.06;;;13.95;100.00
62510;BME280;48558;48.242;11.654;2023-05-14T16:26:07;95830.00;;;13.97;100.00
62510;BME280;48558;48.242;11.654;2023-05-14T16:30:20;95828.81;;;13.73;100.00
62510;BME280;48558;48.242;11.654;2023-05-14T16:34:43;95830.31;;;13.68;100.00
62510;BME280;48558;48.242;11.654;2023-05-14T16:39:04;95825.53;;;13.37;100.00
62510;BME280;48558;48.242;11.654;2023-05-14T16:43:18;95826.09;;;13.47;100.00
62510;BME280;48558;48.242;11.654;2023-05-14T16:47:31;95826.84;;;13.16;100.00
62510;BME280;48558;48.242;11.654;2023-05-14T16:51:53;95829.94;;;13.24;100.00
62510;BME280;48558;48.242;11.654;2023-05-14T16:56:06;95830.38;;;13.17;100.00
62510;BME280;48558;48.242;11.654;2023-05-14T17:00:18;95825.25;;;12.58;100.00
62510;BME280;48558;48.242;11.654;2023-05-14T17:04:31;95826.03;;;12.84;100.00
62510;BME280;48558;48.242;11.654;2023-05-14T17:08:44;95820.81;;;12.92;100.00
62510;BME280;48558;48.242;11.654;2023-05-14T17:12:56;95825.66;;;12.97;100.00
62510;BME280;48558;48.242;11.654;2023-05-14T17:17:09;95819.38;;;12.76;100.00
62510;BME280;48558;48.242;11.654;2023-05-14T17:21:21;95817.50;;;13.14;100.00
62510;BME280;48558;48.242;11.654;2023-05-14T17:25:34;95820.25;;;12.88;100.00
62510;BME280;48558;48.242;11.654;2023-05-14T17:29:46;95818.47;;;12.85;100.00
62510;BME280;48558;48.242;11.654;2023-05-14T17:34:02;95821.41;;;13.02;100.00
62510;BME280;48558;48.242;11.654;2023-05-14T17:38:24;95829.19;;;12.98;100.00
62510;BME280;48558;48.242;11.654;2023-05-14T17:42:37;95819.81;;;13.21;100.00
62510;BME280;48558;48.242;11.654;2023-05-14T17:46:49;95828.94;;;13.01;100.00
62510;BME280;48558;48.242;11.654;2023-05-14T17:51:02;95832.97;;;12.74;100.00
62510;BME280;48558;48.242;11.654;2023-05-14T17:55:14;95833.78;;;12.80;100.00
62510;BME280;48558;48.242;11.654;2023-05-14T17:59:28;95828.13;;;12.69;100.00
62510;BME280;48558;48.242;11.654;2023-05-14T18:03:40;95840.03;;;12.30;100.00
62510;BME280;48558;48.242;11.654;2023-05-14T18:07:53;95839.78;;;12.53;100.00
62510;BME280;48558;48.242;11.654;2023-05-14T18:12:17;95841.34;;;12.34;100.00
62510;BME280;48558;48.242;11.654;2023-05-14T18:16:39;95842.78;;;12.30;100.00
62510;BME280;48558;48.242;11.654;2023-05-14T18:20:52;95846.16;;;12.19;100.00
62510;BME280;48558;48.242;11.654;2023-05-14T18:25:05;95848.19;;;12.18;100.00
62510;BME280;48558;48.242;11.654;2023-05-14T18:29:18;95837.78;;;11.93;100.00
62510;BME280;48558;48.242;11.654;2023-05-14T18:33:32;95840.63;;;11.99;100.00
62510;BME280;48558;48.242;11.654;2023-05-14T18:37:46;95833.53;;;11.78;100.00
62510;BME280;48558;48.242;11.654;2023-05-14T18:41:59;95842.97;;;11.86;100.00
62510;BME280;48558;48.242;11.654;2023-05-14T18:46:11;95842.28;;;11.91;100.00
62510;BME280;48558;48.242;11.654;2023-05-14T18:50:24;95840.84;;;11.95;100.00
62510;BME280;48558;48.242;11.654;2023-05-14T18:54:47;95850.81;;;11.73;100.00
62510;BME280;48558;48.242;11.654;2023-05-14T18:58:59;95845.28;;;11.58;100.00
62510;BME280;48558;48.242;11.654;2023-05-14T19:03:12;95849.31;;;11.42;100.00
62510;BME280;48558;48.242;11.654;2023-05-14T19:07:25;95856.88;;;11.27;100.00
62510;BME280;48558;48.242;11.654;2023-05-14T19:11:38;95856.03;;;11.21;100.00
62510;BME280;48558;48.242;11.654;2023-05-14T19:15:51;95859.19;;;11.14;100.00
62510;BME280;48558;48.242;11.654;2023-05-14T19:20:04;95860.41;;;10.99;100.00
62510;BME280;48558;48.242;11.654;2023-05-14T19:24:27;95852.22;;;10.90;100.00
62510;BME280;48558;48.242;11.654;2023-05-14T19:28:40;95858.66;;;10.72;100.00
62510;BME280;48558;48.242;11.654;2023-05-14T19:33:00;95867.34;;;10.65;100.00
62510;BME280;48558;48.242;11.654;2023-05-14T19:37:13;95856.56;;;10.67;100.00
62510;BME280;48558;48.242;11.654;2023-05-14T19:41:25;95859.03;;;10.79;100.00
62510;BME280;48558;48.242;11.654;2023-05-14T19:45:38;95860.88;;;11.12;100.00
62510;BME280;48558;48.242;11.654;2023-05-14T19:49:53;95864.59;;;11.23;100.00
62510;BME280;48558;48.242;11.654;2023-05-14T19:54:06;95869.00;;;11.30;100.00
62510;BME280;48558;48.242;11.654;2023-05-14T19:58:18;95860.41;;;11.28;100.00
62510;BME280;48558;48.242;11.654;2023-05-14T20:02:31;95857.72;;;11.33;100.00
62510;BME280;48558;48.242;11.654;2023-05-14T20:06:45;95856.88;;;11.27;100.00
62510;BME280;48558;48.242;11.654;2023-05-14T20:10:58;95859.44;;;11.31;100.00
62510;BME280;48558;48.242;11.654;2023-05-14T20:15:10;95858.00;;;11.50;100.00
62510;BME280;48558;48.242;11.654;2023-05-14T20:19:23;95847.78;;;11.56;100.00
62510;BME280;48558;48.242;11.654;2023-05-14T20:23:35;95851.59;;;11.59;100.00
62510;BME280;48558;48.242;11.654;2023-05-14T20:27:48;95839.03;;;11.43;100.00
62510;BME280;48558;48.242;11.654;2023-05-14T20:32:09;95851.69;;;11.49;100.00
62510;BME280;48558;48.242;11.654;2023-05-14T20:36:22;95857.63;;;11.42;100.00
62510;BME280;48558;48.242;11.654;2023-05-14T20:40:35;95857.63;;;11.42;100.00
62510;BME280;48558;48.242;11.654;2023-05-14T20:44:58;95853.69;;;11.49;100.00
62510;BME280;48558;48.242;11.654;2023-05-14T20:49:10;95859.22;;;11.49;100.00
62510;BME280;48558;48.242;11.654;2023-05-14T20:53:22;95842.44;;;11.52;100.00
62510;BME280;48558;48.242;11.654;2023-05-14T20:57:36;95845.31;;;11.43;100.00
62510;BME280;48558;48.242;11.654;2023-05-14T21:01:49;95829.88;;;11.22;100.00
62510;BME280;48558;48.242;11.654;2023-05-14T21:06:01;95831.69;;;11.25;100.00
62510;BME280;48558;48.242;11.654;2023-05-14T21:10:14;95842.66;;;11.20;100.00
62510;BME280;48558;48.242;11.654;2023-05-14T21:14:27;95844.38;;;11.17;100.00
62510;BME280;48558;48.242;11.654;2023-05-14T21:18:39;95848.09;;;11.00;100.00
62510;BME280;48558;48.242;11.654;2023-05-14T21:22:52;95852.66;;;10.88;100.00
62510;BME280;48558;48.242;11.654;2023-05-14T21:27:04;95856.97;;;10.89;100.00
62510;BME280;48558;48.242;11.654;2023-05-14T21:31:17;95847.81;;;10.83;100.00
62510;BME280;48558;48.242;11.654;2023-05-14T21:35:29;95845.34;;;10.85;100.00
62510;BME280;48558;48.242;11.654;2023-05-14T21:39:42;95833.41;;;10.79;100.00
62510;BME280;48558;48.242;11.654;2023-05-14T21:43:54;95838.28;;;10.84;100.00
62510;BME280;48558;48.242;11.654;2023-05-14T21:48:17;95834.56;;;10.87;100.00
62510;BME280;48558;48.242;11.654;2023-05-14T21:52:30;95822.53;;;10.90;100.00
62510;BME280;48558;48.242;11.654;2023-05-14T21:56:43;95826.09;;;10.76;100.00